Amderma Airport


Codes: ULDD/AMV
Name: Amderma Airport
City: Amderma
Country: Russia
Elevation: 13 ft.
Wikipedia:

Photos at Amderma Airport


   Photos courtesy of SpottingLog. You can add your own sightings and photos by signing up for a free trial today.



No photos found.

Weather at Amderma Airport


Time (UTC)DescriptionTempratureWindCloud coverageVisibilityPressureHumidity
21-Jun-2024 15:00Overcast Clouds2°C18 mph, E98%10000m1000hPa85%
21-Jun-2024 18:00Overcast Clouds2°C20 mph, E99%10000m998hPa86%
21-Jun-2024 21:00Overcast Clouds3°C18 mph, E100%10000m996hPa84%
22-Jun-2024 00:00Moderate Rain2°C16 mph, E100%4768m995hPa95%
22-Jun-2024 03:00Moderate Rain2°C13 mph, E100%10000m995hPa98%
22-Jun-2024 06:00Light Rain5°C11 mph, E99%2524m995hPa95%
22-Jun-2024 09:00Broken Clouds9°C7 mph, SE83%2032m995hPa89%
22-Jun-2024 12:00Light Rain10°C7 mph, SW81%2039m996hPa90%
22-Jun-2024 15:00Overcast Clouds6°C11 mph, W100%6203m998hPa94%
22-Jun-2024 18:00Overcast Clouds3°C11 mph, SW100%10000m1000hPa94%
22-Jun-2024 21:00Broken Clouds2°C9 mph, SW51%10000m1002hPa93%
23-Jun-2024 00:00Scattered Clouds4°C9 mph, SW50%10000m1003hPa90%
23-Jun-2024 03:00Overcast Clouds5°C9 mph, SW100%10000m1004hPa76%
23-Jun-2024 06:00Overcast Clouds6°C7 mph, W100%10000m1005hPa66%
23-Jun-2024 09:00Scattered Clouds7°C4 mph, N43%10000m1006hPa64%
23-Jun-2024 12:00Scattered Clouds5°C9 mph, E29%10000m1007hPa71%
23-Jun-2024 15:00Clear Sky5°C13 mph, E8%10000m1007hPa74%
23-Jun-2024 18:00Scattered Clouds4°C13 mph, E47%10000m1006hPa83%
23-Jun-2024 21:00Overcast Clouds4°C13 mph, E98%10000m1006hPa81%
24-Jun-2024 00:00Overcast Clouds4°C9 mph, E99%10000m1006hPa83%
24-Jun-2024 03:00Overcast Clouds3°C11 mph, E100%10000m1006hPa84%
24-Jun-2024 06:00Overcast Clouds4°C11 mph, E100%10000m1006hPa82%
24-Jun-2024 09:00Overcast Clouds3°C11 mph, E100%7958m1006hPa86%
24-Jun-2024 12:00Overcast Clouds5°C11 mph, E100%10000m1005hPa83%
24-Jun-2024 15:00Light Rain3°C7 mph, NE100%7690m1005hPa92%
24-Jun-2024 18:00Overcast Clouds2°C4 mph, N100%7818m1005hPa95%
24-Jun-2024 21:00Overcast Clouds2°C4 mph, N100%7227m1004hPa97%
25-Jun-2024 00:00Light Rain2°C4 mph, NW100%3378m1003hPa97%
25-Jun-2024 03:00Light Rain2°C7 mph, NW100%251m1004hPa98%
25-Jun-2024 06:00Overcast Clouds2°C7 mph, NW100%88m1004hPa98%
25-Jun-2024 09:00Overcast Clouds3°C7 mph, NW100%166m1005hPa97%
25-Jun-2024 12:00Overcast Clouds3°C9 mph, NW100%451m1005hPa96%
25-Jun-2024 15:00Overcast Clouds2°C7 mph, NW100%207m1006hPa98%
25-Jun-2024 18:00Overcast Clouds2°C7 mph, NW100%1446m1006hPa98%
25-Jun-2024 21:00Overcast Clouds2°C9 mph, NW100%10000m1005hPa98%
26-Jun-2024 00:00Overcast Clouds2°C11 mph, NW100%10000m1004hPa97%
26-Jun-2024 03:00Overcast Clouds2°C11 mph, NW100%10000m1004hPa94%
26-Jun-2024 06:00Overcast Clouds4°C11 mph, NW100%7832m1004hPa84%
26-Jun-2024 09:00Overcast Clouds5°C9 mph, NW99%3537m1004hPa78%
26-Jun-2024 12:00Overcast Clouds5°C9 mph, NW99%5188m1004hPa75%